Accueil
METAR-TAF:

METAR-TAF

Aéroports :

Aéroport de Bologne-Borgo Panigale

Bologne, Italie

latitude: 44-32N, longitude: 011-18E, altitude: 36 m

Observation

Le bulletin a été fait il y a 35 minutes, à 00:20 UTC
Vent 10 kt de sud
Température 23°C
Humidité 53%
Pression 1013 hPa
Visibilité 10 km ou plus
pas de nuages en-dessous de 1500 mètres et pas de cumulonimbus.

METAR: LIPE 040020Z 19010KT CAVOK 23/13 Q1013

Heure: 02:55 (00:55 UTC)

Prévision

Le bulletin a été fait il y a 1 heure et 55 minutes, à 23:00 UTC
Prévision valable du 04 à 00 UTC au 04 à 24 UTC
Vent 5 kt de direction variable
Visibilité 10 km ou plus
Quelques nuages à une hauteur de 4000 ft
Evoluant progressivement
du 04 à 08 UTC au 04 à 10 UTC
Vent 10 kt de nord-est
Evoluant progressivement
du 04 à 18 UTC au 04 à 20 UTC
Vent 5 kt de direction variable

TAF: LIPE 032300Z 0400/0424 VRB05KT 9999 FEW040 BECMG 0408/0410 04010KT BECMG 0418/0420 VRB05KT

Observations et prévisions météorologiques de plus de 4000 aéroports (messages METAR et TAF).

Les stations disponibles sont représentées par des disques jaunes et rouges sur la carte.

Passer la souris dessus pour voir le nom de la station.

Cliquer dessus pour voir les observations et prévisions météorologiques.

Pour changer de carte: cliquez sur les boutons verts avec une croix noire pour zoomer, sur le bouton vert avec un tiret pour effectuer un zoom arrière, ou sur les flèches vertes pour les cartes adjacentes.


METAR-TAF: